createdAt,value
2019-02-06T00:01:04.879Z,-2.94
2019-02-06T00:03:45.034Z,-2.84
2019-02-06T00:06:14.629Z,-2.80
2019-02-06T00:08:46.219Z,-2.72
2019-02-06T00:11:17.429Z,-2.71
2019-02-06T00:13:46.694Z,-2.73
2019-02-06T00:16:16.430Z,-2.79
2019-02-06T00:18:45.694Z,-2.88
2019-02-06T00:21:15.106Z,-2.91
2019-02-06T00:23:44.351Z,-2.94
2019-02-06T00:26:14.112Z,-3.04
2019-02-06T00:28:45.055Z,-3.16
2019-02-06T00:31:14.418Z,-3.17
2019-02-06T00:33:43.682Z,-3.13
2019-02-06T00:36:15.319Z,-3.12
2019-02-06T00:38:44.669Z,-3.13
2019-02-06T00:41:13.958Z,-3.08
2019-02-06T00:43:43.323Z,-3.11
2019-02-06T00:46:12.619Z,-3.13
2019-02-06T00:48:42.199Z,-3.18
2019-02-06T00:51:11.479Z,-3.15
2019-02-06T00:53:43.263Z,-3.10
2019-02-06T00:56:13.995Z,-3.08
2019-02-06T00:58:44.311Z,-2.98
2019-02-06T01:01:13.613Z,-3.13
2019-02-06T01:03:42.886Z,-3.18
2019-02-06T01:06:13.346Z,-3.22
2019-02-06T01:08:43.213Z,-3.24
2019-02-06T01:11:12.458Z,-3.21
2019-02-06T01:13:42.087Z,-3.22
2019-02-06T01:16:11.363Z,-3.28
2019-02-06T01:18:42.009Z,-3.23
2019-02-06T01:21:11.355Z,-3.21
2019-02-06T01:23:41.414Z,-3.17
2019-02-06T01:26:11.041Z,-3.25
2019-02-06T01:28:40.650Z,-3.21
2019-02-06T01:31:34.825Z,-3.07
2019-02-06T01:34:05.708Z,-3.11
2019-02-06T01:36:35.266Z,-3.09
2019-02-06T01:39:08.942Z,-3.02
2019-02-06T01:41:39.927Z,-3.01
2019-02-06T01:44:09.192Z,-3.02
2019-02-06T01:46:38.453Z,-3.03
2019-02-06T01:49:09.640Z,-3.03
2019-02-06T01:51:39.536Z,-3.00
2019-02-06T01:54:08.803Z,-3.03
2019-02-06T01:56:38.345Z,-2.94
2019-02-06T01:59:07.577Z,-2.93
2019-02-06T02:01:36.946Z,-2.87
2019-02-06T02:04:06.598Z,-2.86
2019-02-06T02:06:36.034Z,-2.91
2019-02-06T02:09:15.029Z,-2.98
2019-02-06T02:11:44.603Z,-3.07
2019-02-06T02:14:13.901Z,-3.14
2019-02-06T02:16:44.155Z,-3.16
2019-02-06T02:19:14.192Z,-3.15
2019-02-06T02:21:46.496Z,-3.23
2019-02-06T02:24:15.772Z,-3.20
2019-02-06T02:26:46.363Z,-3.14
2019-02-06T02:29:15.635Z,-3.20
2019-02-06T02:31:45.344Z,-3.24
2019-02-06T02:34:14.606Z,-3.25
2019-02-06T02:36:43.855Z,-3.27
2019-02-06T02:39:13.253Z,-3.30
2019-02-06T02:41:42.467Z,-3.33
2019-02-06T02:44:11.758Z,-3.30
2019-02-06T02:46:41.175Z,-3.24
2019-02-06T02:49:13.958Z,-3.27
2019-02-06T02:51:44.395Z,-3.23
2019-02-06T02:54:13.863Z,-3.24
2019-02-06T02:56:43.132Z,-3.30
2019-02-06T02:59:14.013Z,-3.31
2019-02-06T03:02:06.960Z,-3.35
2019-02-06T03:04:42.009Z,-3.37
2019-02-06T03:07:11.257Z,-3.42
2019-02-06T03:09:40.783Z,-3.43
2019-02-06T03:12:12.417Z,-3.46
2019-02-06T03:14:41.967Z,-3.49
2019-02-06T03:17:12.489Z,-3.38
2019-02-06T03:19:44.059Z,-3.33
2019-02-06T03:22:13.309Z,-3.32
2019-02-06T03:24:43.228Z,-3.36
2019-02-06T03:27:12.482Z,-3.41
2019-02-06T03:29:41.744Z,-3.41
2019-02-06T03:32:10.957Z,-3.41
2019-02-06T03:34:42.910Z,-3.42
2019-02-06T03:37:13.126Z,-3.39
2019-02-06T03:39:42.780Z,-3.36
2019-02-06T03:42:12.171Z,-3.28
2019-02-06T03:44:41.518Z,-3.31
2019-02-06T03:47:11.768Z,-3.35
2019-02-06T03:49:42.763Z,-3.35
2019-02-06T03:52:11.983Z,-3.35
2019-02-06T03:54:41.212Z,-3.27
2019-02-06T03:57:10.462Z,-3.21
2019-02-06T03:59:39.731Z,-3.15
2019-02-06T04:02:10.400Z,-3.08
2019-02-06T04:04:39.617Z,-2.98
2019-02-06T04:07:09.149Z,-2.92
2019-02-06T04:09:38.370Z,-2.96
2019-02-06T04:12:08.182Z,-3.01
2019-02-06T04:14:37.436Z,-3.06
2019-02-06T04:17:07.569Z,-3.16
2019-02-06T04:19:44.274Z,-3.15
2019-02-06T04:22:13.562Z,-3.17
2019-02-06T04:24:42.774Z,-3.20
2019-02-06T04:27:12.313Z,-3.25
2019-02-06T04:29:42.269Z,-3.20
2019-02-06T04:32:13.396Z,-3.23
2019-02-06T04:34:42.651Z,-3.27
2019-02-06T04:37:11.906Z,-3.29
2019-02-06T04:39:41.382Z,-3.34
2019-02-06T04:42:10.710Z,-3.38
2019-02-06T04:44:39.991Z,-3.39
2019-02-06T04:47:10.103Z,-3.26
2019-02-06T04:49:39.368Z,-3.25
2019-02-06T04:52:09.429Z,-3.19
2019-02-06T04:54:42.161Z,-3.12
2019-02-06T04:57:11.397Z,-3.17
2019-02-06T04:59:42.220Z,-3.12
2019-02-06T05:02:11.820Z,-3.00
2019-02-06T05:04:41.532Z,-2.94
2019-02-06T05:07:19.177Z,-2.91
2019-02-06T05:09:42.356Z,-2.94
2019-02-06T05:12:11.997Z,-2.96
2019-02-06T05:14:41.631Z,-2.93
2019-02-06T05:17:10.939Z,-2.94
2019-02-06T05:19:40.573Z,-2.93
2019-02-06T05:22:14.275Z,-3.05
2019-02-06T05:24:43.541Z,-3.18
2019-02-06T05:27:13.636Z,-3.24
2019-02-06T05:29:42.885Z,-3.23
2019-02-06T05:32:12.113Z,-3.24
2019-02-06T05:34:45.258Z,-3.16
2019-02-06T05:37:15.428Z,-3.26
2019-02-06T05:39:47.069Z,-3.19
2019-02-06T05:42:16.330Z,-3.24
2019-02-06T05:44:45.582Z,-3.24
2019-02-06T05:47:14.815Z,-3.24
2019-02-06T05:49:44.257Z,-3.19
2019-02-06T05:52:14.266Z,-3.20
2019-02-06T05:54:43.524Z,-3.16
2019-02-06T05:57:12.761Z,-3.12
2019-02-06T05:59:42.512Z,-3.05
2019-02-06T06:02:11.778Z,-2.99
2019-02-06T06:04:41.489Z,-2.89
2019-02-06T06:07:13.059Z,-2.80
2019-02-06T06:09:42.283Z,-2.81
2019-02-06T06:12:11.390Z,-2.78
2019-02-06T06:14:41.176Z,-2.73
2019-02-06T06:17:10.436Z,-2.73
2019-02-06T06:19:43.118Z,-2.66
2019-02-06T06:22:13.272Z,-2.65
2019-02-06T06:24:45.865Z,-2.59
2019-02-06T06:27:16.935Z,-2.50
2019-02-06T06:29:46.164Z,-2.44
2019-02-06T06:32:15.431Z,-2.38
2019-02-06T06:34:47.282Z,-2.46
2019-02-06T06:37:16.816Z,-2.67
2019-02-06T06:39:46.344Z,-2.73
2019-02-06T06:42:15.596Z,-2.70
2019-02-06T06:44:44.833Z,-2.88
2019-02-06T06:47:14.791Z,-2.90
2019-02-06T06:49:44.097Z,-3.03
2019-02-06T06:52:13.458Z,-3.05
2019-02-06T06:54:42.615Z,-3.08
2019-02-06T06:57:12.459Z,-3.05
2019-02-06T06:59:41.866Z,-3.07
2019-02-06T07:02:11.143Z,-3.06
2019-02-06T07:04:42.585Z,-3.01
2019-02-06T07:07:11.920Z,-2.90
2019-02-06T07:09:41.137Z,-2.83
2019-02-06T07:12:10.468Z,-2.73
2019-02-06T07:14:40.745Z,-2.82
2019-02-06T07:17:10.005Z,-2.71
2019-02-06T07:19:39.821Z,-2.64
2019-02-06T07:22:10.623Z,-2.66
2019-02-06T07:24:40.517Z,-2.54
2019-02-06T07:27:10.464Z,-2.50
2019-02-06T07:29:40.719Z,-2.49
2019-02-06T07:32:10.376Z,-2.41
2019-02-06T07:34:41.181Z,-2.38
2019-02-06T07:37:10.456Z,-2.46
2019-02-06T07:39:39.689Z,-2.57
2019-02-06T07:42:08.947Z,-2.63
2019-02-06T07:44:39.953Z,-2.63
2019-02-06T07:47:09.706Z,-2.55
2019-02-06T07:49:42.898Z,-2.54
2019-02-06T07:52:12.164Z,-2.45
2019-02-06T07:54:41.658Z,-2.38
2019-02-06T07:57:11.776Z,-2.39
2019-02-06T07:59:41.894Z,-2.31
2019-02-06T08:02:11.720Z,-2.19
2019-02-06T08:04:42.036Z,-2.17
2019-02-06T08:07:11.629Z,-2.20
2019-02-06T08:09:40.860Z,-2.25
2019-02-06T08:12:14.196Z,-2.36
2019-02-06T08:14:43.788Z,-2.35
2019-02-06T08:17:13.485Z,-2.40
2019-02-06T08:19:45.569Z,-2.39
2019-02-06T08:22:14.800Z,-2.29
2019-02-06T08:24:44.491Z,-2.21
2019-02-06T08:27:16.947Z,-2.13
2019-02-06T08:29:46.913Z,-2.17
2019-02-06T08:32:16.539Z,-2.20
2019-02-06T08:34:45.826Z,-2.12
2019-02-06T08:37:16.811Z,-2.11
2019-02-06T08:39:46.075Z,-2.06
2019-02-06T08:42:15.334Z,-2.12
2019-02-06T08:44:48.007Z,-2.14
2019-02-06T08:47:19.077Z,-2.22
2019-02-06T08:49:50.393Z,-2.23
2019-02-06T08:52:21.808Z,-2.17
2019-02-06T08:54:51.067Z,-2.11
2019-02-06T08:57:29.234Z,-2.00
2019-02-06T08:59:58.778Z,-1.80
2019-02-06T09:02:28.049Z,-1.72
2019-02-06T09:04:57.337Z,-1.57
2019-02-06T09:07:27.245Z,-1.37
2019-02-06T09:09:58.007Z,-0.94
2019-02-06T09:12:29.446Z,-0.70
2019-02-06T09:14:58.714Z,-0.66
2019-02-06T09:17:30.118Z,-0.75
2019-02-06T09:19:59.723Z,-0.71
2019-02-06T09:22:28.792Z,-0.87
2019-02-06T09:25:01.575Z,-0.95
2019-02-06T09:27:30.847Z,-0.93
2019-02-06T09:30:06.709Z,-0.96
2019-02-06T09:32:40.666Z,-0.86
2019-02-06T09:35:10.054Z,-0.84
2019-02-06T09:37:39.784Z,-0.46
2019-02-06T09:40:10.908Z,-0.14
2019-02-06T09:42:42.959Z,-0.28
2019-02-06T09:45:16.200Z,-0.19
2019-02-06T09:47:45.529Z,-0.36
2019-02-06T09:50:40.172Z,-0.67
2019-02-06T09:53:09.435Z,-0.70
2019-02-06T09:55:38.694Z,-0.76
2019-02-06T09:58:07.920Z,-0.83
2019-02-06T10:00:38.931Z,-0.85
2019-02-06T10:03:10.113Z,-0.87
2019-02-06T10:05:41.664Z,-1.03
2019-02-06T10:08:11.276Z,-1.13
2019-02-06T10:10:41.618Z,-1.05
2019-02-06T10:13:11.142Z,-1.08
2019-02-06T10:15:40.576Z,-0.96
2019-02-06T10:18:10.924Z,-1.01
2019-02-06T10:20:49.947Z,-0.89
2019-02-06T10:23:19.191Z,-0.65
2019-02-06T10:25:53.582Z,-0.59
2019-02-06T10:28:25.846Z,-0.56
2019-02-06T10:30:55.331Z,-0.39
2019-02-06T10:33:24.887Z,-0.27
2019-02-06T10:36:01.656Z,-0.17
2019-02-06T10:38:30.901Z,-0.12
2019-02-06T10:41:00.699Z,-0.24
2019-02-06T10:43:32.739Z,-0.13
2019-02-06T10:46:03.918Z,-0.22
2019-02-06T10:48:33.176Z,-0.45
2019-02-06T10:51:03.558Z,-0.56
2019-02-06T10:53:33.009Z,-0.59
2019-02-06T10:56:03.028Z,-0.83
2019-02-06T10:58:32.478Z,-0.71
2019-02-06T11:01:04.346Z,-0.51
2019-02-06T11:03:33.912Z,-0.61
2019-02-06T11:06:03.163Z,-0.75
2019-02-06T11:08:34.737Z,-0.55
2019-02-06T11:11:05.652Z,-0.65
2019-02-06T11:13:36.137Z,-0.71
2019-02-06T11:16:08.479Z,-0.66
2019-02-06T11:18:45.137Z,-0.78
2019-02-06T11:21:14.377Z,-0.72
2019-02-06T11:23:45.281Z,-0.85
2019-02-06T11:26:16.986Z,-0.88
2019-02-06T11:28:46.262Z,-0.87
2019-02-06T11:31:15.537Z,-0.75
2019-02-06T11:33:44.843Z,-0.78
2019-02-06T11:36:23.829Z,-0.98
2019-02-06T11:38:45.146Z,-1.26
2019-02-06T11:41:16.751Z,-1.46
2019-02-06T11:43:47.948Z,-1.25
2019-02-06T11:46:17.208Z,-0.98
2019-02-06T11:48:47.552Z,-0.88
2019-02-06T11:51:16.978Z,-1.07
2019-02-06T11:53:49.898Z,-0.99
2019-02-06T11:56:23.611Z,-0.92
2019-02-06T11:58:53.284Z,-0.90
2019-02-06T12:01:31.743Z,-0.81
2019-02-06T12:04:01.415Z,-0.67
2019-02-06T12:06:31.887Z,-0.86
2019-02-06T12:09:05.608Z,-0.94
2019-02-06T12:11:34.883Z,-1.12
2019-02-06T12:14:04.663Z,-1.36
2019-02-06T12:16:34.198Z,-1.39
2019-02-06T12:19:03.752Z,-1.60
2019-02-06T12:21:33.020Z,-1.59
2019-02-06T12:24:02.308Z,-1.65
2019-02-06T12:26:32.756Z,-1.61
2019-02-06T12:29:01.994Z,-1.48
2019-02-06T12:31:34.871Z,-1.36
2019-02-06T12:34:04.414Z,-1.32
2019-02-06T12:36:34.028Z,-1.33
2019-02-06T12:39:07.592Z,-1.51
2019-02-06T12:41:38.846Z,-1.50
2019-02-06T12:44:08.409Z,-1.60
2019-02-06T12:46:37.666Z,-1.46
2019-02-06T12:49:09.082Z,-1.49
2019-02-06T12:51:38.514Z,-1.45
2019-02-06T12:54:10.178Z,-1.42
2019-02-06T12:56:39.450Z,-1.07
2019-02-06T12:59:08.683Z,-0.69
2019-02-06T13:01:40.401Z,-0.45
2019-02-06T13:04:09.639Z,-0.58
2019-02-06T13:06:40.017Z,-0.90
2019-02-06T13:09:11.958Z,-1.04
2019-02-06T13:11:41.333Z,-1.00
2019-02-06T13:14:14.857Z,-0.82
2019-02-06T13:16:44.800Z,-0.74
2019-02-06T13:19:14.299Z,-0.82
2019-02-06T13:21:44.729Z,-0.90
2019-02-06T13:24:14.087Z,-0.84
2019-02-06T13:26:44.311Z,-0.64
2019-02-06T13:29:13.795Z,-0.42
2019-02-06T13:31:45.291Z,-0.27
2019-02-06T13:34:14.677Z,-0.41
2019-02-06T13:36:44.208Z,-0.92
2019-02-06T13:39:13.480Z,-1.12
2019-02-06T13:41:43.954Z,-1.27
2019-02-06T13:44:16.573Z,-1.34
2019-02-06T13:46:53.000Z,-1.36
2019-02-06T13:49:17.519Z,-1.16
2019-02-06T13:51:47.992Z,-0.96
2019-02-06T13:54:20.782Z,-1.01
2019-02-06T13:56:51.241Z,-0.86
2019-02-06T13:59:20.940Z,-0.92
2019-02-06T14:01:50.193Z,-1.11
2019-02-06T14:04:19.826Z,-1.26
2019-02-06T14:06:49.535Z,-1.18
2019-02-06T14:09:26.953Z,-1.31
2019-02-06T14:11:59.861Z,-1.38
2019-02-06T14:14:29.748Z,-1.52
2019-02-06T14:16:59.258Z,-1.54
2019-02-06T14:19:29.334Z,-1.10
2019-02-06T14:22:02.474Z,-0.65
2019-02-06T14:25:02.813Z,-0.53
2019-02-06T14:27:53.868Z,-0.67
2019-02-06T14:30:35.889Z,-0.89
2019-02-06T14:33:31.235Z,-0.99
2019-02-06T14:36:23.580Z,-0.79
2019-02-06T14:39:25.994Z,-0.78
2019-02-06T14:43:03.771Z,-0.76
2019-02-06T14:46:19.097Z,-0.84
2019-02-06T14:49:35.959Z,-0.64
2019-02-06T14:52:39.554Z,-0.71
2019-02-06T14:55:27.590Z,-0.98
2019-02-06T14:58:34.561Z,-1.18
2019-02-06T15:01:57.602Z,-1.20
2019-02-06T15:04:56.565Z,-1.28
2019-02-06T15:08:20.342Z,-1.39
2019-02-06T15:11:19.650Z,-1.44
2019-02-06T15:14:39.422Z,-1.40
2019-02-06T15:17:57.372Z,-1.38
2019-02-06T15:21:06.450Z,-1.45
2019-02-06T15:24:18.814Z,-1.25
2019-02-06T15:27:26.563Z,-1.27
2019-02-06T15:30:36.213Z,-1.46
2019-02-06T15:33:29.415Z,-1.52
2019-02-06T15:36:48.681Z,-1.61
2019-02-06T15:39:35.597Z,-1.74
2019-02-06T15:42:35.930Z,-1.89
2019-02-06T15:45:43.132Z,-2.05
2019-02-06T15:48:32.242Z,-1.79
2019-02-06T15:51:20.424Z,-1.60
2019-02-06T15:54:28.552Z,-1.47
2019-02-06T15:57:47.590Z,-1.54
2019-02-06T16:01:07.424Z,-1.84
2019-02-06T16:04:53.699Z,-2.07
2019-02-06T16:07:50.736Z,-2.09
2019-02-06T16:10:59.721Z,-2.09
2019-02-06T16:13:51.971Z,-2.07
2019-02-06T16:17:09.008Z,-2.17
2019-02-06T16:20:09.389Z,-2.27
2019-02-06T16:23:08.950Z,-2.34
2019-02-06T16:26:04.053Z,-2.53
2019-02-06T16:29:08.600Z,-2.75
2019-02-06T16:32:37.140Z,-2.92
2019-02-06T16:35:47.199Z,-2.93
2019-02-06T16:38:43.948Z,-2.94
2019-02-06T16:41:40.734Z,-2.84
2019-02-06T16:44:35.802Z,-2.75
2019-02-06T16:47:45.064Z,-2.72
2019-02-06T16:50:46.815Z,-2.56
2019-02-06T16:53:29.070Z,-2.55
2019-02-06T16:56:28.423Z,-2.74
2019-02-06T16:59:40.897Z,-2.74
2019-02-06T17:02:56.773Z,-2.77
2019-02-06T17:05:43.808Z,-2.67
2019-02-06T17:08:34.013Z,-2.77
2019-02-06T17:11:46.010Z,-2.83
2019-02-06T17:14:53.586Z,-2.93
2019-02-06T17:18:15.187Z,-2.99
2019-02-06T17:21:48.893Z,-2.93
2019-02-06T17:24:46.065Z,-2.92
2019-02-06T17:27:52.900Z,-2.92
2019-02-06T17:31:01.885Z,-2.93
2019-02-06T17:34:00.065Z,-2.89
2019-02-06T17:37:12.508Z,-2.89
2019-02-06T17:40:28.783Z,-2.89
2019-02-06T17:43:37.520Z,-2.83
2019-02-06T17:46:28.161Z,-2.80
2019-02-06T17:49:40.752Z,-2.79
2019-02-06T17:52:38.785Z,-2.73
2019-02-06T17:55:27.614Z,-2.75
2019-02-06T17:57:58.813Z,-2.59
2019-02-06T18:00:48.025Z,-2.41
2019-02-06T18:03:17.392Z,-2.32
2019-02-06T18:05:47.129Z,-2.17
2019-02-06T18:08:19.438Z,-2.16
2019-02-06T18:10:49.346Z,-2.06
2019-02-06T18:13:20.117Z,-2.11
2019-02-06T18:15:51.589Z,-2.12
2019-02-06T18:18:21.107Z,-2.08
2019-02-06T18:20:50.539Z,-2.05
2019-02-06T18:23:20.052Z,-2.03
2019-02-06T18:25:53.299Z,-1.95
2019-02-06T18:28:22.537Z,-1.90
2019-02-06T18:30:51.913Z,-1.90
2019-02-06T18:33:24.932Z,-1.97
2019-02-06T18:35:55.377Z,-1.98
2019-02-06T18:38:24.600Z,-1.92
2019-02-06T18:40:53.908Z,-1.92
2019-02-06T18:43:23.171Z,-2.14
2019-02-06T18:45:53.780Z,-2.32
2019-02-06T18:48:24.671Z,-2.24
2019-02-06T18:50:55.504Z,-2.22
2019-02-06T18:53:27.752Z,-2.22
2019-02-06T18:55:57.594Z,-2.24
2019-02-06T18:58:27.688Z,-2.20
2019-02-06T19:00:57.409Z,-2.18
2019-02-06T19:03:33.523Z,-2.22
2019-02-06T19:06:04.147Z,-2.32
2019-02-06T19:08:35.864Z,-2.47
2019-02-06T19:11:06.241Z,-2.55
2019-02-06T19:13:38.016Z,-2.56
2019-02-06T19:16:07.531Z,-2.62
2019-02-06T19:18:38.195Z,-2.65
2019-02-06T19:21:07.486Z,-2.79
2019-02-06T19:23:40.169Z,-2.91
2019-02-06T19:26:09.775Z,-2.96
2019-02-06T19:28:39.180Z,-3.08
2019-02-06T19:31:08.392Z,-3.08
2019-02-06T19:33:38.459Z,-3.05
2019-02-06T19:36:08.323Z,-3.03
2019-02-06T19:38:41.670Z,-2.98
2019-02-06T19:41:11.606Z,-2.94
2019-02-06T19:43:41.150Z,-2.93
2019-02-06T19:46:10.823Z,-3.00
2019-02-06T19:48:40.050Z,-3.06
2019-02-06T19:51:09.309Z,-3.06
2019-02-06T19:53:38.554Z,-3.01
2019-02-06T19:56:09.324Z,-2.98
2019-02-06T19:58:41.069Z,-2.97
2019-02-06T20:01:11.224Z,-2.96
2019-02-06T20:03:40.788Z,-2.93
2019-02-06T20:06:29.282Z,-2.91
2019-02-06T20:09:02.178Z,-2.86
2019-02-06T20:11:32.161Z,-2.88
2019-02-06T20:14:01.409Z,-2.91
2019-02-06T20:16:33.203Z,-2.96
2019-02-06T20:19:03.504Z,-2.91
2019-02-06T20:21:35.062Z,-2.91
2019-02-06T20:24:07.532Z,-3.02
2019-02-06T20:26:44.312Z,-3.02
2019-02-06T20:29:14.358Z,-3.15
2019-02-06T20:31:46.349Z,-3.15
2019-02-06T20:34:18.802Z,-3.12
2019-02-06T20:36:48.773Z,-3.11
2019-02-06T20:39:27.403Z,-3.18
2019-02-06T20:41:57.434Z,-3.25
2019-02-06T20:44:29.788Z,-3.24
2019-02-06T20:47:02.123Z,-3.28
2019-02-06T20:49:36.253Z,-3.32
2019-02-06T20:52:06.388Z,-3.35
2019-02-06T20:54:37.857Z,-3.36
2019-02-06T20:57:13.600Z,-3.46
2019-02-06T20:59:40.362Z,-3.41
2019-02-06T21:02:10.041Z,-3.42
2019-02-06T21:04:40.939Z,-3.46
2019-02-06T21:07:12.218Z,-3.42
2019-02-06T21:09:50.831Z,-3.42
2019-02-06T21:12:22.331Z,-3.36
2019-02-06T21:14:53.106Z,-3.21
2019-02-06T21:17:24.634Z,-3.12
2019-02-06T21:19:54.033Z,-3.07
2019-02-06T21:22:36.703Z,-3.02
2019-02-06T21:25:09.651Z,-3.00
2019-02-06T21:27:44.115Z,-3.03
2019-02-06T21:30:32.294Z,-3.06
2019-02-06T21:33:02.900Z,-3.07
2019-02-06T21:35:32.385Z,-3.08
2019-02-06T21:38:06.820Z,-3.03
2019-02-06T21:40:40.359Z,-3.01
2019-02-06T21:43:12.557Z,-3.13
2019-02-06T21:45:41.787Z,-3.21
2019-02-06T21:48:11.467Z,-3.30
2019-02-06T21:50:42.613Z,-3.30
2019-02-06T21:53:12.532Z,-3.24
2019-02-06T21:55:43.730Z,-3.21
2019-02-06T21:58:13.443Z,-3.18
2019-02-06T22:00:45.105Z,-3.16
2019-02-06T22:03:15.399Z,-3.18
2019-02-06T22:05:47.373Z,-3.18
2019-02-06T22:08:17.768Z,-3.26
2019-02-06T22:10:57.031Z,-3.24
2019-02-06T22:13:31.238Z,-3.22
2019-02-06T22:16:00.469Z,-3.21
2019-02-06T22:18:35.553Z,-3.20
2019-02-06T22:21:08.822Z,-3.12
2019-02-06T22:23:38.570Z,-3.08
2019-02-06T22:26:10.726Z,-3.11
2019-02-06T22:28:41.256Z,-3.14
2019-02-06T22:31:13.801Z,-3.15
2019-02-06T22:33:43.406Z,-3.11
2019-02-06T22:36:13.511Z,-3.13
2019-02-06T22:38:48.293Z,-3.23
2019-02-06T22:41:20.167Z,-3.28
2019-02-06T22:44:05.990Z,-3.50
2019-02-06T22:46:35.120Z,-3.50
2019-02-06T22:49:04.996Z,-3.58
2019-02-06T22:51:34.754Z,-3.63
2019-02-06T22:54:05.888Z,-3.72
2019-02-06T22:56:36.080Z,-3.69
2019-02-06T22:59:05.986Z,-3.72
2019-02-06T23:01:49.769Z,-3.80
2019-02-06T23:04:20.372Z,-3.85
2019-02-06T23:06:51.431Z,-3.92
2019-02-06T23:09:22.210Z,-3.96
2019-02-06T23:11:53.842Z,-3.97
2019-02-06T23:14:29.190Z,-4.10
2019-02-06T23:17:00.970Z,-4.17
2019-02-06T23:19:32.241Z,-4.22
2019-02-06T23:22:02.810Z,-4.14
2019-02-06T23:24:35.409Z,-4.25
2019-02-06T23:27:05.386Z,-4.30
2019-02-06T23:29:34.931Z,-4.44
2019-02-06T23:32:04.149Z,-4.43
2019-02-06T23:34:34.846Z,-4.46
2019-02-06T23:37:04.799Z,-4.42
2019-02-06T23:39:34.126Z,-4.28
2019-02-06T23:42:03.697Z,-4.20
2019-02-06T23:44:33.690Z,-4.32
2019-02-06T23:47:11.556Z,-4.47
2019-02-06T23:49:45.310Z,-4.51
2019-02-06T23:52:16.370Z,-4.48
2019-02-06T23:54:46.238Z,-4.45
2019-02-06T23:57:17.715Z,-4.40
2019-02-06T23:59:47.254Z,-4.28
